sensor_id;sensor_type;location;lat;lon;timestamp;pressure;altitude;pressure_sealevel;temperature;humidity
70544;BME280;58097;48.364;-1.224;2023-03-13T00:00:05;98772.97;;;12.37;100.00
70544;BME280;58097;48.364;-1.224;2023-03-13T00:02:31;98751.88;;;12.36;100.00
70544;BME280;58097;48.364;-1.224;2023-03-13T00:04:56;98753.38;;;12.38;100.00
70544;BME280;58097;48.364;-1.224;2023-03-13T00:07:21;98746.78;;;12.39;100.00
70544;BME280;58097;48.364;-1.224;2023-03-13T00:09:48;98747.84;;;12.38;99.93
70544;BME280;58097;48.364;-1.224;2023-03-13T00:12:13;98749.34;;;12.41;99.16
70544;BME280;58097;48.364;-1.224;2023-03-13T00:14:38;98739.97;;;12.42;99.19
70544;BME280;58097;48.364;-1.224;2023-03-13T00:17:04;98738.47;;;12.39;98.63
70544;BME280;58097;48.364;-1.224;2023-03-13T00:19:29;98732.72;;;12.41;98.31
70544;BME280;58097;48.364;-1.224;2023-03-13T00:21:55;98733.38;;;12.43;98.25
70544;BME280;58097;48.364;-1.224;2023-03-13T00:24:20;98726.63;;;12.46;97.97
70544;BME280;58097;48.364;-1.224;2023-03-13T00:26:45;98724.50;;;12.48;97.76
70544;BME280;58097;48.364;-1.224;2023-03-13T00:29:11;98724.28;;;12.49;97.72
70544;BME280;58097;48.364;-1.224;2023-03-13T00:31:36;98711.09;;;12.51;97.10
70544;BME280;58097;48.364;-1.224;2023-03-13T00:34:02;98725.78;;;12.52;96.95
70544;BME280;58097;48.364;-1.224;2023-03-13T00:36:30;98716.41;;;12.53;96.49
70544;BME280;58097;48.364;-1.224;2023-03-13T00:38:57;98721.75;;;12.54;96.28
70544;BME280;58097;48.364;-1.224;2023-03-13T00:41:30;98718.56;;;12.57;96.08
70544;BME280;58097;48.364;-1.224;2023-03-13T00:43:56;98709.84;;;12.60;95.94
70544;BME280;58097;48.364;-1.224;2023-03-13T00:46:24;98702.81;;;12.58;95.05
70544;BME280;58097;48.364;-1.224;2023-03-13T00:48:50;98692.38;;;12.60;95.03
70544;BME280;58097;48.364;-1.224;2023-03-13T00:51:17;98710.50;;;12.62;94.72
70544;BME280;58097;48.364;-1.224;2023-03-13T00:53:43;98696.25;;;12.65;94.90
70544;BME280;58097;48.364;-1.224;2023-03-13T00:56:11;98699.00;;;12.65;93.53
70544;BME280;58097;48.364;-1.224;2023-03-13T00:58:39;98709.47;;;12.70;93.30
70544;BME280;58097;48.364;-1.224;2023-03-13T01:01:26;98703.72;;;12.71;93.09
70544;BME280;58097;48.364;-1.224;2023-03-13T01:03:56;98700.78;;;12.73;93.08
70544;BME280;58097;48.364;-1.224;2023-03-13T01:06:25;98699.50;;;12.76;92.49
70544;BME280;58097;48.364;-1.224;2023-03-13T01:08:51;98691.00;;;12.77;92.67
70544;BME280;58097;48.364;-1.224;2023-03-13T01:11:20;98705.91;;;12.76;93.00
70544;BME280;58097;48.364;-1.224;2023-03-13T01:13:46;98689.94;;;12.78;92.53
70544;BME280;58097;48.364;-1.224;2023-03-13T01:16:14;98702.94;;;12.78;92.62
70544;BME280;58097;48.364;-1.224;2023-03-13T01:18:46;98691.63;;;12.79;91.88
70544;BME280;58097;48.364;-1.224;2023-03-13T01:21:13;98704.03;;;12.83;92.07
70544;BME280;58097;48.364;-1.224;2023-03-13T01:23:39;98701.03;;;12.78;91.94
70544;BME280;58097;48.364;-1.224;2023-03-13T01:26:06;98715.09;;;12.77;92.19
70544;BME280;58097;48.364;-1.224;2023-03-13T01:28:32;98721.69;;;12.76;92.90
70544;BME280;58097;48.364;-1.224;2023-03-13T01:30:58;98724.25;;;12.77;92.45
70544;BME280;58097;48.364;-1.224;2023-03-13T01:33:24;98721.28;;;12.79;91.82
70544;BME280;58097;48.364;-1.224;2023-03-13T01:35:49;98712.75;;;12.80;92.57
70544;BME280;58097;48.364;-1.224;2023-03-13T01:38:15;98704.66;;;12.79;91.98
70544;BME280;58097;48.364;-1.224;2023-03-13T01:40:45;98710.84;;;12.81;91.89
70544;BME280;58097;48.364;-1.224;2023-03-13T01:43:22;98702.53;;;12.81;91.39
70544;BME280;58097;48.364;-1.224;2023-03-13T01:48:39;98684.63;;;12.83;90.85
70544;BME280;58097;48.364;-1.224;2023-03-13T01:51:21;98685.28;;;12.85;90.71
70544;BME280;58097;48.364;-1.224;2023-03-13T01:53:52;98696.16;;;12.87;90.76
70544;BME280;58097;48.364;-1.224;2023-03-13T01:56:25;98680.38;;;12.87;90.83
70544;BME280;58097;48.364;-1.224;2023-03-13T01:58:51;98672.91;;;12.88;91.02
70544;BME280;58097;48.364;-1.224;2023-03-13T02:01:18;98654.56;;;12.87;90.56
70544;BME280;58097;48.364;-1.224;2023-03-13T02:03:45;98670.13;;;12.88;90.24
70544;BME280;58097;48.364;-1.224;2023-03-13T02:06:11;98651.38;;;12.90;90.10
70544;BME280;58097;48.364;-1.224;2023-03-13T02:08:41;98644.78;;;12.91;90.04
70544;BME280;58097;48.364;-1.224;2023-03-13T02:13:52;98614.72;;;12.94;89.60
70544;BME280;58097;48.364;-1.224;2023-03-13T02:16:18;98610.00;;;12.95;89.91
70544;BME280;58097;48.364;-1.224;2023-03-13T02:18:44;98605.97;;;12.97;90.07
70544;BME280;58097;48.364;-1.224;2023-03-13T02:21:45;98585.50;;;12.98;89.46
70544;BME280;58097;48.364;-1.224;2023-03-13T02:24:42;98592.75;;;12.99;89.66
70544;BME280;58097;48.364;-1.224;2023-03-13T02:27:09;98590.81;;;13.00;89.73
70544;BME280;58097;48.364;-1.224;2023-03-13T02:29:34;98592.97;;;12.98;89.60
70544;BME280;58097;48.364;-1.224;2023-03-13T02:32:00;98592.56;;;13.01;89.74
70544;BME280;58097;48.364;-1.224;2023-03-13T02:34:29;98589.78;;;13.01;90.02
70544;BME280;58097;48.364;-1.224;2023-03-13T02:36:57;98594.28;;;13.02;90.12
70544;BME280;58097;48.364;-1.224;2023-03-13T02:39:23;98581.25;;;13.02;90.16
70544;BME280;58097;48.364;-1.224;2023-03-13T02:41:50;98563.78;;;13.02;90.54
70544;BME280;58097;48.364;-1.224;2023-03-13T02:44:17;98576.31;;;12.98;90.66
70544;BME280;58097;48.364;-1.224;2023-03-13T02:46:50;98555.63;;;12.94;91.60
70544;BME280;58097;48.364;-1.224;2023-03-13T02:49:25;98551.56;;;12.90;92.33
70544;BME280;58097;48.364;-1.224;2023-03-13T02:51:53;98537.06;;;12.88;93.52
70544;BME280;58097;48.364;-1.224;2023-03-13T02:54:22;98539.19;;;12.79;93.71
70544;BME280;58097;48.364;-1.224;2023-03-13T02:56:52;98537.19;;;12.66;93.98
70544;BME280;58097;48.364;-1.224;2023-03-13T02:59:19;98557.44;;;12.60;94.25
70544;BME280;58097;48.364;-1.224;2023-03-13T03:01:45;98546.53;;;12.52;95.20
70544;BME280;58097;48.364;-1.224;2023-03-13T03:04:10;98545.41;;;12.40;96.28
70544;BME280;58097;48.364;-1.224;2023-03-13T03:06:36;98554.53;;;12.34;96.61
70544;BME280;58097;48.364;-1.224;2023-03-13T03:09:02;98539.59;;;12.28;96.94
70544;BME280;58097;48.364;-1.224;2023-03-13T03:11:27;98510.81;;;12.23;97.93
70544;BME280;58097;48.364;-1.224;2023-03-13T03:13:53;98545.25;;;12.14;99.09
70544;BME280;58097;48.364;-1.224;2023-03-13T03:16:18;98539.06;;;12.12;98.95
70544;BME280;58097;48.364;-1.224;2023-03-13T03:18:44;98537.38;;;12.10;99.13
70544;BME280;58097;48.364;-1.224;2023-03-13T03:21:10;98524.78;;;12.08;99.57
70544;BME280;58097;48.364;-1.224;2023-03-13T03:23:36;98521.38;;;12.06;100.00
70544;BME280;58097;48.364;-1.224;2023-03-13T03:26:03;98540.97;;;12.04;100.00
70544;BME280;58097;48.364;-1.224;2023-03-13T03:28:29;98534.16;;;12.07;100.00
70544;BME280;58097;48.364;-1.224;2023-03-13T03:30:54;98523.94;;;12.07;100.00
70544;BME280;58097;48.364;-1.224;2023-03-13T03:33:21;98514.34;;;12.03;100.00
70544;BME280;58097;48.364;-1.224;2023-03-13T03:35:48;98514.97;;;12.05;100.00
70544;BME280;58097;48.364;-1.224;2023-03-13T03:38:13;98512.41;;;12.04;100.00
70544;BME280;58097;48.364;-1.224;2023-03-13T03:40:39;98501.34;;;12.04;100.00
70544;BME280;58097;48.364;-1.224;2023-03-13T03:43:04;98514.50;;;11.95;100.00
70544;BME280;58097;48.364;-1.224;2023-03-13T03:45:29;98515.38;;;11.96;100.00
70544;BME280;58097;48.364;-1.224;2023-03-13T03:47:55;98501.97;;;11.99;100.00
70544;BME280;58097;48.364;-1.224;2023-03-13T03:50:26;98500.69;;;12.02;100.00
70544;BME280;58097;48.364;-1.224;2023-03-13T03:52:51;98501.34;;;12.04;100.00
70544;BME280;58097;48.364;-1.224;2023-03-13T03:55:17;98495.81;;;12.04;100.00
70544;BME280;58097;48.364;-1.224;2023-03-13T03:57:43;98497.31;;;12.06;100.00
70544;BME280;58097;48.364;-1.224;2023-03-13T04:00:09;98499.22;;;12.06;100.00
70544;BME280;58097;48.364;-1.224;2023-03-13T04:02:36;98494.53;;;12.06;100.00
70544;BME280;58097;48.364;-1.224;2023-03-13T04:05:02;98477.06;;;12.06;100.00
70544;BME280;58097;48.364;-1.224;2023-03-13T04:07:28;98483.47;;;12.06;100.00
70544;BME280;58097;48.364;-1.224;2023-03-13T04:09:53;98484.31;;;12.07;100.00
70544;BME280;58097;48.364;-1.224;2023-03-13T04:12:19;98479.63;;;12.07;100.00
70544;BME280;58097;48.364;-1.224;2023-03-13T04:14:44;98478.78;;;12.07;100.00
70544;BME280;58097;48.364;-1.224;2023-03-13T04:17:10;98479.63;;;12.07;100.00
70544;BME280;58097;48.364;-1.224;2023-03-13T04:19:35;98486.88;;;12.08;100.00
70544;BME280;58097;48.364;-1.224;2023-03-13T04:22:00;98469.84;;;12.12;100.00
70544;BME280;58097;48.364;-1.224;2023-03-13T04:24:26;98472.41;;;12.13;100.00
70544;BME280;58097;48.364;-1.224;2023-03-13T04:26:51;98475.81;;;12.08;100.00
70544;BME280;58097;48.364;-1.224;2023-03-13T04:29:17;98470.47;;;12.07;100.00
70544;BME280;58097;48.364;-1.224;2023-03-13T04:31:42;98461.31;;;12.06;100.00
70544;BME280;58097;48.364;-1.224;2023-03-13T04:34:07;98475.59;;;12.10;100.00
70544;BME280;58097;48.364;-1.224;2023-03-13T04:36:33;98450.69;;;12.10;100.00
70544;BME280;58097;48.364;-1.224;2023-03-13T04:38:58;98463.47;;;12.11;100.00
70544;BME280;58097;48.364;-1.224;2023-03-13T04:41:23;98478.16;;;12.12;100.00
70544;BME280;58097;48.364;-1.224;2023-03-13T04:43:49;98458.78;;;12.12;100.00
70544;BME280;58097;48.364;-1.224;2023-03-13T04:46:14;98458.38;;;12.15;100.00
70544;BME280;58097;48.364;-1.224;2023-03-13T04:48:39;98451.53;;;12.10;100.00
70544;BME280;58097;48.364;-1.224;2023-03-13T04:51:05;98463.88;;;12.08;100.00
70544;BME280;58097;48.364;-1.224;2023-03-13T04:53:30;98455.56;;;12.08;100.00
70544;BME280;58097;48.364;-1.224;2023-03-13T04:55:55;98464.31;;;12.12;100.00
70544;BME280;58097;48.364;-1.224;2023-03-13T04:58:21;98456.84;;;12.12;100.00
70544;BME280;58097;48.364;-1.224;2023-03-13T05:00:46;98454.31;;;12.10;100.00
70544;BME280;58097;48.364;-1.224;2023-03-13T05:03:11;98452.19;;;12.13;100.00
70544;BME280;58097;48.364;-1.224;2023-03-13T05:05:37;98454.09;;;12.12;100.00
70544;BME280;58097;48.364;-1.224;2023-03-13T05:08:02;98460.69;;;12.11;100.00
70544;BME280;58097;48.364;-1.224;2023-03-13T05:10:27;98442.56;;;12.08;100.00
70544;BME280;58097;48.364;-1.224;2023-03-13T05:12:53;98463.03;;;12.07;100.00
70544;BME280;58097;48.364;-1.224;2023-03-13T05:15:18;98455.16;;;12.11;100.00
70544;BME280;58097;48.364;-1.224;2023-03-13T05:17:43;98442.56;;;12.08;100.00
70544;BME280;58097;48.364;-1.224;2023-03-13T05:20:09;98437.69;;;12.10;100.00
70544;BME280;58097;48.364;-1.224;2023-03-13T05:22:36;98441.09;;;12.13;100.00
70544;BME280;58097;48.364;-1.224;2023-03-13T05:25:01;98431.72;;;12.14;100.00
70544;BME280;58097;48.364;-1.224;2023-03-13T05:27:27;98420.66;;;12.14;100.00
70544;BME280;58097;48.364;-1.224;2023-03-13T05:29:52;98419.63;;;12.15;100.00
70544;BME280;58097;48.364;-1.224;2023-03-13T05:32:17;98426.59;;;12.10;100.00
70544;BME280;58097;48.364;-1.224;2023-03-13T05:34:43;98422.56;;;12.06;100.00
70544;BME280;58097;48.364;-1.224;2023-03-13T05:37:08;98410.63;;;12.06;100.00
70544;BME280;58097;48.364;-1.224;2023-03-13T05:39:33;98414.25;;;12.06;100.00
70544;BME280;58097;48.364;-1.224;2023-03-13T05:41:59;98410.84;;;12.04;100.00
70544;BME280;58097;48.364;-1.224;2023-03-13T05:44:24;98417.84;;;12.00;100.00
70544;BME280;58097;48.364;-1.224;2023-03-13T05:46:49;98416.13;;;11.99;100.00
70544;BME280;58097;48.364;-1.224;2023-03-13T05:49:15;98394.41;;;11.96;100.00
70544;BME280;58097;48.364;-1.224;2023-03-13T05:51:40;98411.88;;;11.97;100.00
70544;BME280;58097;48.364;-1.224;2023-03-13T05:54:05;98411.44;;;11.93;100.00
70544;BME280;58097;48.364;-1.224;2023-03-13T05:56:31;98406.31;;;11.90;100.00
70544;BME280;58097;48.364;-1.224;2023-03-13T05:58:56;98415.88;;;11.88;100.00
70544;BME280;58097;48.364;-1.224;2023-03-13T06:01:21;98403.56;;;11.90;100.00
70544;BME280;58097;48.364;-1.224;2023-03-13T06:03:47;98407.81;;;11.93;100.00
70544;BME280;58097;48.364;-1.224;2023-03-13T06:06:12;98385.47;;;11.94;100.00
70544;BME280;58097;48.364;-1.224;2023-03-13T06:08:38;98400.16;;;11.95;100.00
70544;BME280;58097;48.364;-1.224;2023-03-13T06:11:04;98395.47;;;11.95;100.00
70544;BME280;58097;48.364;-1.224;2023-03-13T06:13:29;98383.34;;;11.96;100.00
70544;BME280;58097;48.364;-1.224;2023-03-13T06:15:56;98391.63;;;11.96;100.00
70544;BME280;58097;48.364;-1.224;2023-03-13T06:18:23;98386.53;;;11.93;99.82
70544;BME280;58097;48.364;-1.224;2023-03-13T06:20:49;98382.47;;;11.89;99.71
70544;BME280;58097;48.364;-1.224;2023-03-13T06:23:19;98379.91;;;11.88;99.85
70544;BME280;58097;48.364;-1.224;2023-03-13T06:25:48;98375.22;;;11.88;100.00
70544;BME280;58097;48.364;-1.224;2023-03-13T06:28:14;98369.47;;;11.90;100.00
70544;BME280;58097;48.364;-1.224;2023-03-13T06:30:39;98352.03;;;11.89;99.76
70544;BME280;58097;48.364;-1.224;2023-03-13T06:33:05;98357.78;;;11.94;99.64
70544;BME280;58097;48.364;-1.224;2023-03-13T06:35:30;98362.69;;;11.92;99.66
70544;BME280;58097;48.364;-1.224;2023-03-13T06:37:56;98353.31;;;11.93;99.54
70544;BME280;58097;48.364;-1.224;2023-03-13T06:40:21;98363.72;;;11.91;99.55
70544;BME280;58097;48.364;-1.224;2023-03-13T06:42:46;98352.22;;;11.88;98.91
70544;BME280;58097;48.364;-1.224;2023-03-13T06:45:12;98353.88;;;11.82;98.68
70544;BME280;58097;48.364;-1.224;2023-03-13T06:47:37;98357.50;;;11.83;98.77
70544;BME280;58097;48.364;-1.224;2023-03-13T06:50:03;98324.50;;;11.81;98.66
70544;BME280;58097;48.364;-1.224;2023-03-13T06:52:28;98338.34;;;11.81;98.90
70544;BME280;58097;48.364;-1.224;2023-03-13T06:54:53;98337.91;;;11.84;99.50
70544;BME280;58097;48.364;-1.224;2023-03-13T06:57:19;98341.16;;;11.88;99.46
70544;BME280;58097;48.364;-1.224;2023-03-13T06:59:44;98330.53;;;11.91;99.28
70544;BME280;58097;48.364;-1.224;2023-03-13T07:02:12;98330.09;;;11.94;99.43
70544;BME280;58097;48.364;-1.224;2023-03-13T07:04:38;98318.81;;;11.96;98.68
70544;BME280;58097;48.364;-1.224;2023-03-13T07:07:04;98314.13;;;11.96;98.73
70544;BME280;58097;48.364;-1.224;2023-03-13T07:09:29;98315.19;;;11.95;98.38
70544;BME280;58097;48.364;-1.224;2023-03-13T07:11:55;98326.69;;;11.92;98.17
70544;BME280;58097;48.364;-1.224;2023-03-13T07:14:22;98329.88;;;11.89;97.87
70544;BME280;58097;48.364;-1.224;2023-03-13T07:16:47;98312.41;;;11.89;97.97
70544;BME280;58097;48.364;-1.224;2023-03-13T07:19:13;98323.69;;;11.87;97.74
70544;BME280;58097;48.364;-1.224;2023-03-13T07:21:39;98316.03;;;11.89;97.92
70544;BME280;58097;48.364;-1.224;2023-03-13T07:24:05;98321.16;;;11.92;98.01
70544;BME280;58097;48.364;-1.224;2023-03-13T07:26:30;98323.28;;;11.97;98.19
70544;BME280;58097;48.364;-1.224;2023-03-13T07:28:56;98315.19;;;12.02;97.85
70544;BME280;58097;48.364;-1.224;2023-03-13T07:31:21;98325.00;;;12.04;97.70
70544;BME280;58097;48.364;-1.224;2023-03-13T07:33:48;98302.84;;;12.04;97.10
70544;BME280;58097;48.364;-1.224;2023-03-13T07:36:17;98314.34;;;12.01;96.60
70544;BME280;58097;48.364;-1.224;2023-03-13T07:38:46;98292.63;;;11.98;95.81
70544;BME280;58097;48.364;-1.224;2023-03-13T07:41:12;98301.16;;;11.97;95.11
70544;BME280;58097;48.364;-1.224;2023-03-13T07:43:38;98300.28;;;11.96;94.85
70544;BME280;58097;48.364;-1.224;2023-03-13T07:46:04;98286.88;;;12.00;95.30
70544;BME280;58097;48.364;-1.224;2023-03-13T07:48:41;98283.47;;;12.04;95.43
70544;BME280;58097;48.364;-1.224;2023-03-13T07:51:10;98282.22;;;12.14;94.90
70544;BME280;58097;48.364;-1.224;2023-03-13T07:53:37;98287.56;;;12.22;94.72
70544;BME280;58097;48.364;-1.224;2023-03-13T07:56:04;98290.97;;;12.30;94.96
70544;BME280;58097;48.364;-1.224;2023-03-13T07:58:32;98283.31;;;12.32;93.85
70544;BME280;58097;48.364;-1.224;2023-03-13T08:00:58;98285.22;;;12.38;93.68
70544;BME280;58097;48.364;-1.224;2023-03-13T08:03:24;98288.84;;;12.39;92.53
70544;BME280;58097;48.364;-1.224;2023-03-13T08:06:00;98286.50;;;12.36;92.22
70544;BME280;58097;48.364;-1.224;2023-03-13T08:08:26;98294.38;;;12.39;92.64
70544;BME280;58097;48.364;-1.224;2023-03-13T08:10:52;98298.63;;;12.41;92.91
70544;BME280;58097;48.364;-1.224;2023-03-13T08:13:17;98273.06;;;12.39;92.67
70544;BME280;58097;48.364;-1.224;2023-03-13T08:15:43;98288.84;;;12.39;92.21
70544;BME280;58097;48.364;-1.224;2023-03-13T08:18:08;98282.00;;;12.41;92.07
70544;BME280;58097;48.364;-1.224;2023-03-13T08:20:33;98273.94;;;12.47;92.58
70544;BME280;58097;48.364;-1.224;2023-03-13T08:22:58;98258.59;;;12.57;92.13
70544;BME280;58097;48.364;-1.224;2023-03-13T08:25:24;98256.44;;;12.66;91.34
70544;BME280;58097;48.364;-1.224;2023-03-13T08:27:49;98264.34;;;12.76;91.15
70544;BME280;58097;48.364;-1.224;2023-03-13T08:30:15;98252.38;;;12.82;89.96
70544;BME280;58097;48.364;-1.224;2023-03-13T08:32:40;98251.72;;;12.86;89.34
70544;BME280;58097;48.364;-1.224;2023-03-13T08:35:06;98258.97;;;12.87;89.36
70544;BME280;58097;48.364;-1.224;2023-03-13T08:37:31;98247.03;;;12.87;89.21
70544;BME280;58097;48.364;-1.224;2023-03-13T08:39:56;98250.44;;;12.89;88.34
70544;BME280;58097;48.364;-1.224;2023-03-13T08:42:22;98241.06;;;12.90;88.11
70544;BME280;58097;48.364;-1.224;2023-03-13T08:44:48;98248.06;;;12.99;87.03
70544;BME280;58097;48.364;-1.224;2023-03-13T08:47:14;98238.06;;;13.05;86.83
70544;BME280;58097;48.364;-1.224;2023-03-13T08:49:39;98229.72;;;12.98;85.28
70544;BME280;58097;48.364;-1.224;2023-03-13T08:52:06;98231.44;;;12.99;86.65
70544;BME280;58097;48.364;-1.224;2023-03-13T08:54:32;98231.22;;;13.00;85.60
70544;BME280;58097;48.364;-1.224;2023-03-13T08:56:58;98238.91;;;13.05;85.78
70544;BME280;58097;48.364;-1.224;2023-03-13T08:59:26;98237.59;;;13.14;85.79
70544;BME280;58097;48.364;-1.224;2023-03-13T09:01:52;98224.78;;;13.20;84.33
70544;BME280;58097;48.364;-1.224;2023-03-13T09:04:18;98242.03;;;13.35;85.68
70544;BME280;58097;48.364;-1.224;2023-03-13T09:06:43;98246.91;;;13.40;85.80
70544;BME280;58097;48.364;-1.224;2023-03-13T09:09:10;98242.25;;;13.33;85.05
70544;BME280;58097;48.364;-1.224;2023-03-13T09:11:37;98228.59;;;13.32;84.94
70544;BME280;58097;48.364;-1.224;2023-03-13T09:14:04;98222.63;;;13.28;84.88
70544;BME280;58097;48.364;-1.224;2023-03-13T09:16:31;98214.09;;;13.17;83.86
70544;BME280;58097;48.364;-1.224;2023-03-13T09:18:58;98215.41;;;13.14;83.78
70544;BME280;58097;48.364;-1.224;2023-03-13T09:21:26;98205.59;;;13.12;83.77
70544;BME280;58097;48.364;-1.224;2023-03-13T09:23:52;98209.63;;;13.22;84.59
70544;BME280;58097;48.364;-1.224;2023-03-13T09:26:19;98200.00;;;13.31;84.24
70544;BME280;58097;48.364;-1.224;2023-03-13T09:28:44;98202.78;;;13.31;83.08
70544;BME280;58097;48.364;-1.224;2023-03-13T09:31:20;98207.69;;;13.23;82.12
70544;BME280;58097;48.364;-1.224;2023-03-13T09:33:48;98192.75;;;13.24;81.51
70544;BME280;58097;48.364;-1.224;2023-03-13T09:36:13;98185.25;;;13.38;81.67
70544;BME280;58097;48.364;-1.224;2023-03-13T09:38:39;98196.31;;;13.44;80.66
70544;BME280;58097;48.364;-1.224;2023-03-13T09:44:05;98187.69;;;13.59;78.85
70544;BME280;58097;48.364;-1.224;2023-03-13T09:46:48;98189.81;;;13.63;77.01
70544;BME280;58097;48.364;-1.224;2023-03-13T09:54:45;98187.25;;;13.93;77.22
70544;BME280;58097;48.364;-1.224;2023-03-13T09:57:26;98196.25;;;14.20;78.36
70544;BME280;58097;48.364;-1.224;2023-03-13T10:02:30;98186.44;;;14.43;74.75
70544;BME280;58097;48.364;-1.224;2023-03-13T10:05:02;98197.75;;;14.41;74.95
70544;BME280;58097;48.364;-1.224;2023-03-13T10:07:29;98190.78;;;14.32;74.21
70544;BME280;58097;48.364;-1.224;2023-03-13T10:09:54;98168.22;;;14.22;73.74
70544;BME280;58097;48.364;-1.224;2023-03-13T10:12:23;98181.28;;;14.21;75.10
70544;BME280;58097;48.364;-1.224;2023-03-13T10:15:29;98187.06;;;14.20;73.75
70544;BME280;58097;48.364;-1.224;2023-03-13T10:17:58;98176.66;;;14.34;76.02
70544;BME280;58097;48.364;-1.224;2023-03-13T10:20:31;98163.09;;;14.50;73.42
70544;BME280;58097;48.364;-1.224;2023-03-13T10:25:38;98172.78;;;14.84;73.14
70544;BME280;58097;48.364;-1.224;2023-03-13T10:28:12;98177.63;;;14.71;70.78
70544;BME280;58097;48.364;-1.224;2023-03-13T10:30:43;98172.31;;;14.44;70.23
70544;BME280;58097;48.364;-1.224;2023-03-13T10:35:38;98174.13;;;14.32;71.66
70544;BME280;58097;48.364;-1.224;2023-03-13T10:38:17;98168.03;;;14.42;72.90
70544;BME280;58097;48.364;-1.224;2023-03-13T10:40:43;98178.59;;;14.33;71.00
70544;BME280;58097;48.364;-1.224;2023-03-13T10:43:20;98183.59;;;14.24;70.34
70544;BME280;58097;48.364;-1.224;2023-03-13T10:45:46;98175.97;;;14.13;70.21
70544;BME280;58097;48.364;-1.224;2023-03-13T10:48:14;98170.09;;;14.03;70.09
70544;BME280;58097;48.364;-1.224;2023-03-13T10:50:45;98171.56;;;14.06;71.39
70544;BME280;58097;48.364;-1.224;2023-03-13T10:55:53;98155.69;;;14.63;71.78
70544;BME280;58097;48.364;-1.224;2023-03-13T10:58:22;98141.56;;;14.64;69.19
70544;BME280;58097;48.364;-1.224;2023-03-13T11:00:51;98149.97;;;14.57;70.00
70544;BME280;58097;48.364;-1.224;2023-03-13T11:03:25;98152.91;;;14.63;70.91
70544;BME280;58097;48.364;-1.224;2023-03-13T11:05:59;98156.53;;;14.63;72.15
70544;BME280;58097;48.364;-1.224;2023-03-13T11:08:27;98155.53;;;14.57;71.68
70544;BME280;58097;48.364;-1.224;2023-03-13T11:10:56;98144.88;;;14.73;72.82
70544;BME280;58097;48.364;-1.224;2023-03-13T11:13:35;98142.47;;;14.95;72.21
70544;BME280;58097;48.364;-1.224;2023-03-13T11:16:08;98143.66;;;14.87;67.96
70544;BME280;58097;48.364;-1.224;2023-03-13T11:21:41;98131.81;;;14.73;68.17
70544;BME280;58097;48.364;-1.224;2023-03-13T11:24:14;98131.28;;;14.83;68.19
70544;BME280;58097;48.364;-1.224;2023-03-13T11:26:49;98135.41;;;14.80;68.15
70544;BME280;58097;48.364;-1.224;2023-03-13T11:29:33;98128.28;;;14.84;68.89
70544;BME280;58097;48.364;-1.224;2023-03-13T11:32:02;98118.75;;;14.74;69.15
70544;BME280;58097;48.364;-1.224;2023-03-13T11:37:11;98102.09;;;14.92;67.31
70544;BME280;58097;48.364;-1.224;2023-03-13T11:43:13;98066.94;;;15.28;65.96
70544;BME280;58097;48.364;-1.224;2023-03-13T11:48:26;98068.59;;;15.47;63.13
70544;BME280;58097;48.364;-1.224;2023-03-13T11:51:09;98089.81;;;15.60;63.04
70544;BME280;58097;48.364;-1.224;2023-03-13T11:56:42;98074.50;;;15.69;61.76
70544;BME280;58097;48.364;-1.224;2023-03-13T12:02:14;98053.56;;;15.66;62.55
70544;BME280;58097;48.364;-1.224;2023-03-13T12:04:42;98050.88;;;15.71;62.07
70544;BME280;58097;48.364;-1.224;2023-03-13T12:07:38;98049.91;;;15.66;60.11
70544;BME280;58097;48.364;-1.224;2023-03-13T12:10:09;98024.41;;;15.50;58.92
70544;BME280;58097;48.364;-1.224;2023-03-13T12:12:40;98048.88;;;15.48;60.16
70544;BME280;58097;48.364;-1.224;2023-03-13T12:18:16;98041.66;;;15.29;59.76
70544;BME280;58097;48.364;-1.224;2023-03-13T12:20:51;98022.09;;;15.36;59.93
70544;BME280;58097;48.364;-1.224;2023-03-13T12:26:07;98014.25;;;15.56;60.86
70544;BME280;58097;48.364;-1.224;2023-03-13T12:28:42;98014.44;;;15.61;60.80
70544;BME280;58097;48.364;-1.224;2023-03-13T12:31:12;98009.28;;;15.46;60.93
70544;BME280;58097;48.364;-1.224;2023-03-13T12:33:47;97999.34;;;15.39;60.78
70544;BME280;58097;48.364;-1.224;2023-03-13T12:36:25;97990.72;;;15.29;58.47
70544;BME280;58097;48.364;-1.224;2023-03-13T12:44:43;97991.34;;;15.01;63.58
70544;BME280;58097;48.364;-1.224;2023-03-13T12:47:18;97980.56;;;14.93;62.47
70544;BME280;58097;48.364;-1.224;2023-03-13T13:00:13;97968.94;;;15.26;61.59
70544;BME280;58097;48.364;-1.224;2023-03-13T13:02:40;97946.34;;;15.34;60.65
70544;BME280;58097;48.364;-1.224;2023-03-13T13:05:15;97945.72;;;15.32;61.36
70544;BME280;58097;48.364;-1.224;2023-03-13T13:07:52;97938.09;;;15.27;60.81
70544;BME280;58097;48.364;-1.224;2023-03-13T13:10:21;97927.22;;;15.49;61.99
70544;BME280;58097;48.364;-1.224;2023-03-13T13:16:01;97917.47;;;15.93;60.37
70544;BME280;58097;48.364;-1.224;2023-03-13T13:18:30;97917.72;;;15.92;59.21
70544;BME280;58097;48.364;-1.224;2023-03-13T13:23:36;97901.34;;;15.60;61.18
70544;BME280;58097;48.364;-1.224;2023-03-13T13:26:45;97899.28;;;15.56;62.15
70544;BME280;58097;48.364;-1.224;2023-03-13T13:37:00;97855.97;;;15.60;59.72
70544;BME280;58097;48.364;-1.224;2023-03-13T13:39:39;97856.13;;;15.65;58.43
70544;BME280;58097;48.364;-1.224;2023-03-13T13:47:43;97850.28;;;15.78;58.10
70544;BME280;58097;48.364;-1.224;2023-03-13T13:50:20;97844.06;;;15.88;59.83
70544;BME280;58097;48.364;-1.224;2023-03-13T13:52:48;97846.84;;;15.88;60.75
70544;BME280;58097;48.364;-1.224;2023-03-13T13:55:39;97844.34;;;15.74;60.70
70544;BME280;58097;48.364;-1.224;2023-03-13T13:58:11;97829.13;;;15.65;61.30
70544;BME280;58097;48.364;-1.224;2023-03-13T14:01:00;97831.16;;;15.58;61.28
70544;BME280;58097;48.364;-1.224;2023-03-13T14:03:31;97829.97;;;15.66;63.03
70544;BME280;58097;48.364;-1.224;2023-03-13T14:06:17;97821.72;;;15.71;61.21
70544;BME280;58097;48.364;-1.224;2023-03-13T14:08:45;97813.50;;;15.64;57.86
70544;BME280;58097;48.364;-1.224;2023-03-13T14:11:33;97819.28;;;15.51;59.39
70544;BME280;58097;48.364;-1.224;2023-03-13T14:14:20;97806.13;;;15.35;59.77
70544;BME280;58097;48.364;-1.224;2023-03-13T14:16:55;97810.44;;;15.31;60.46